Time;durP1;ratioP1;P1;durP2;ratioP2;P2;SDS_P1;SDS_P2;PMS_P1;PMS_P2;Temp;Humidity;BMP_temperature;BMP_pressure;BME280_temperature;BME280_humidity;BME280_pressure;Samples;Min_cycle;Max_cycle;Signal;HPM_P1;HPM_P2
2022/05/21 00:00:54;;;;;;;2.87;1.23;;;16.50;99.90;;;;;;5011675;28;20419;-72
2022/05/21 00:03:20;;;;;;;1.43;1.10;;;16.40;99.90;;;;;;5011900;28;20185;-71
2022/05/21 00:05:46;;;;;;;1.40;1.30;;;16.40;99.90;;;;;;5011309;28;20498;-73
2022/05/21 00:08:11;;;;;;;1.57;1.40;;;16.30;99.90;;;;;;5011570;28;20168;-71
2022/05/21 00:10:39;;;;;;;1.40;1.30;;;16.30;99.90;;;;;;5011263;28;20402;-72
2022/05/21 00:13:05;;;;;;;1.50;1.40;;;16.20;99.90;;;;;;5011254;28;20218;-72
2022/05/21 00:15:33;;;;;;;1.27;1.17;;;16.30;99.90;;;;;;5011294;28;20481;-72
2022/05/21 00:17:59;;;;;;;1.00;0.90;;;16.30;99.90;;;;;;5011535;28;20465;-73
2022/05/21 00:23:13;;;;;;;1.53;1.43;;;16.30;99.90;;;;;;5012561;28;20178;-73
2022/05/21 00:25:38;;;;;;;1.47;1.33;;;16.30;99.90;;;;;;5011547;28;20470;-72
2022/05/21 00:28:04;;;;;;;1.57;1.47;;;16.30;99.90;;;;;;5011698;28;20494;-72
2022/05/21 00:30:30;;;;;;;1.23;1.13;;;16.30;99.90;;;;;;5011212;28;20164;-72
2022/05/21 00:32:55;;;;;;;1.27;1.17;;;16.30;99.90;;;;;;5011127;28;20171;-72
2022/05/21 00:35:21;;;;;;;1.57;1.40;;;16.20;99.90;;;;;;5010887;28;20537;-73
2022/05/21 00:37:46;;;;;;;1.67;1.30;;;16.20;99.90;;;;;;5011112;28;20177;-72
2022/05/21 00:40:12;;;;;;;2.13;1.73;;;16.10;99.90;;;;;;5011273;28;20176;-73
2022/05/21 00:42:45;;;;;;;1.10;1.00;;;16.10;99.90;;;;;;5010981;28;20658;-72
2022/05/21 00:45:11;;;;;;;1.67;1.50;;;16.10;99.90;;;;;;5010562;28;20550;-73
2022/05/21 00:47:37;;;;;;;1.50;1.40;;;16.10;99.90;;;;;;5010798;28;20419;-73
2022/05/21 00:50:05;;;;;;;1.50;1.40;;;16.10;99.90;;;;;;5012239;28;20945;-72
2022/05/21 00:52:33;;;;;;;1.60;1.50;;;16.10;99.90;;;;;;5014465;28;20168;-72
2022/05/21 00:55:03;;;;;;;1.33;1.23;;;16.10;99.90;;;;;;5014095;28;20439;-72
2022/05/21 00:57:33;;;;;;;1.33;1.23;;;16.10;99.90;;;;;;5014603;28;20399;-72
2022/05/21 01:00:10;;;;;;;1.70;1.60;;;16.10;99.90;;;;;;5014591;28;20422;-73
2022/05/21 01:02:43;;;;;;;1.20;1.10;;;16.10;99.90;;;;;;5014371;28;20407;-73
2022/05/21 01:05:11;;;;;;;1.50;1.40;;;16.00;99.90;;;;;;5011681;28;20486;-73
2022/05/21 01:07:40;;;;;;;1.60;1.50;;;15.90;99.90;;;;;;5014535;28;20446;-73
2022/05/21 01:10:06;;;;;;;1.43;1.33;;;15.90;99.90;;;;;;5014211;28;20824;-73
2022/05/21 01:12:36;;;;;;;1.33;1.23;;;15.90;99.90;;;;;;5014012;28;20415;-73
2022/05/21 01:15:09;;;;;;;1.70;1.60;;;15.90;99.90;;;;;;5013854;28;20463;-73
2022/05/21 01:17:35;;;;;;;1.90;1.40;;;15.80;99.90;;;;;;5014185;28;20494;-72
2022/05/21 01:20:04;;;;;;;2.03;1.47;;;15.70;99.90;;;;;;5014108;28;20503;-73
2022/05/21 01:22:38;;;;;;;1.90;1.57;;;15.60;99.90;;;;;;5013908;28;20177;-72
2022/05/21 01:25:04;;;;;;;1.40;1.30;;;15.60;99.90;;;;;;5042013;23;20497;-68
2022/05/21 01:27:30;;;;;;;1.80;1.70;;;15.50;99.90;;;;;;5034279;28;20411;-68
2022/05/21 01:29:57;;;;;;;1.50;1.40;;;15.40;99.90;;;;;;5034327;28;20900;-67
2022/05/21 01:32:23;;;;;;;1.97;1.77;;;15.40;99.90;;;;;;5034496;28;20167;-68
2022/05/21 01:34:48;;;;;;;1.70;1.60;;;15.30;99.90;;;;;;5033935;28;20924;-68
2022/05/21 01:37:14;;;;;;;2.23;1.83;;;15.30;99.90;;;;;;5034105;28;20173;-69
2022/05/21 01:39:39;;;;;;;2.70;1.17;;;15.20;99.90;;;;;;5033898;28;20179;-67
2022/05/21 01:42:05;;;;;;;4.70;1.67;;;15.10;99.90;;;;;;5034099;28;20164;-68
2022/05/21 01:44:40;;;;;;;1.43;1.33;;;15.10;99.90;;;;;;5033798;28;20218;-67
2022/05/21 01:47:11;;;;;;;1.70;1.60;;;15.10;99.90;;;;;;5034419;28;20449;-69
2022/05/21 01:49:38;;;;;;;1.27;1.17;;;15.10;99.90;;;;;;5034610;28;20437;-67
2022/05/21 01:52:05;;;;;;;1.50;1.40;;;15.00;99.90;;;;;;5034950;28;20406;-69
2022/05/21 01:54:32;;;;;;;1.90;1.27;;;14.90;99.90;;;;;;5040013;28;20399;-68
2022/05/21 01:56:58;;;;;;;1.27;1.07;;;14.90;99.90;;;;;;5039367;28;20434;-69
2022/05/21 01:59:23;;;;;;;1.80;1.43;;;14.90;99.90;;;;;;5034044;28;20437;-69
2022/05/21 02:01:49;;;;;;;3.83;1.60;;;14.80;99.90;;;;;;5034860;28;20178;-69
2022/05/21 02:04:16;;;;;;;1.53;1.43;;;14.80;99.90;;;;;;5035133;28;20920;-69
2022/05/21 02:06:42;;;;;;;1.40;1.30;;;14.80;99.90;;;;;;5035350;28;20437;-68
2022/05/21 02:09:08;;;;;;;1.87;1.67;;;14.70;99.90;;;;;;5033968;28;20487;-67
2022/05/21 02:11:33;;;;;;;1.40;1.30;;;14.70;99.90;;;;;;5033840;28;20172;-68
2022/05/21 02:13:59;;;;;;;1.60;1.50;;;14.80;99.90;;;;;;5034266;28;20233;-69
2022/05/21 02:16:24;;;;;;;1.87;1.77;;;14.80;99.90;;;;;;5034195;28;20202;-69
2022/05/21 02:18:50;;;;;;;2.10;1.70;;;14.80;99.90;;;;;;5034318;28;20179;-68
2022/05/21 02:21:17;;;;;;;1.73;1.63;;;14.80;99.90;;;;;;5034040;28;20188;-68
2022/05/21 02:23:43;;;;;;;1.70;1.50;;;14.80;99.90;;;;;;5034631;28;20178;-68
2022/05/21 02:26:08;;;;;;;1.90;1.80;;;14.80;99.90;;;;;;5034886;28;20465;-69
2022/05/21 02:28:34;;;;;;;2.07;1.87;;;14.80;99.90;;;;;;5034535;28;20570;-69
2022/05/21 02:30:59;;;;;;;2.17;1.90;;;14.80;99.90;;;;;;5033529;28;20175;-68
2022/05/21 02:33:25;;;;;;;1.60;1.50;;;14.80;99.90;;;;;;5033213;28;20263;-69
2022/05/21 02:35:50;;;;;;;1.93;1.83;;;14.70;99.90;;;;;;5033028;28;20199;-68
2022/05/21 02:40:59;;;;;;;1.40;1.30;;;14.80;99.90;;;;;;5032868;28;20553;-69
2022/05/21 02:43:25;;;;;;;1.73;1.60;;;14.80;99.90;;;;;;5032971;28;20501;-68
2022/05/21 02:45:51;;;;;;;1.97;1.80;;;14.70;99.90;;;;;;5032306;28;20199;-67
2022/05/21 02:48:16;;;;;;;1.63;1.53;;;14.70;99.90;;;;;;5032827;28;20179;-68
2022/05/21 02:50:42;;;;;;;1.90;1.80;;;14.70;99.90;;;;;;5033240;28;20164;-68
2022/05/21 02:53:17;;;;;;;2.00;1.33;;;14.70;99.90;;;;;;5032765;28;20168;-68
2022/05/21 02:55:43;;;;;;;1.60;1.50;;;14.70;99.90;;;;;;5032299;28;20236;-68
2022/05/21 02:58:09;;;;;;;1.57;1.47;;;14.70;99.90;;;;;;5032863;28;20907;-69
2022/05/21 03:00:34;;;;;;;1.47;1.37;;;14.70;99.90;;;;;;5033108;28;20421;-69
2022/05/21 03:03:00;;;;;;;2.70;2.13;;;14.70;99.90;;;;;;5032643;28;20206;-68
2022/05/21 03:05:27;;;;;;;2.00;1.90;;;14.70;99.90;;;;;;5034385;28;20630;-68
2022/05/21 03:07:53;;;;;;;6.20;1.77;;;14.60;99.90;;;;;;5034298;28;20181;-68
2022/05/21 03:10:21;;;;;;;1.73;1.57;;;14.60;99.90;;;;;;5031541;28;20406;-69
2022/05/21 03:12:52;;;;;;;1.93;1.80;;;14.60;99.90;;;;;;5032248;28;20402;-68
2022/05/21 03:15:19;;;;;;;4.20;1.50;;;14.60;99.90;;;;;;5032472;28;20430;-68
2022/05/21 03:17:46;;;;;;;3.07;1.80;;;14.60;99.90;;;;;;5033160;28;20407;-69
2022/05/21 03:20:13;;;;;;;1.70;1.60;;;14.60;99.90;;;;;;5033060;28;20442;-68
2022/05/21 03:22:40;;;;;;;2.97;1.93;;;14.50;99.90;;;;;;5032988;28;20410;-68
2022/05/21 03:25:06;;;;;;;1.97;1.80;;;14.50;99.90;;;;;;5032325;28;20465;-68
2022/05/21 03:27:32;;;;;;;1.83;1.60;;;14.50;99.90;;;;;;5033220;28;20896;-68
2022/05/21 03:29:57;;;;;;;2.27;2.10;;;14.40;99.90;;;;;;5033069;28;20417;-68
2022/05/21 03:32:23;;;;;;;1.57;1.47;;;14.40;99.90;;;;;;5032555;28;20168;-68
2022/05/21 03:34:48;;;;;;;2.13;1.90;;;14.40;99.90;;;;;;5032280;28;20199;-68
2022/05/21 03:37:13;;;;;;;1.60;1.50;;;14.30;99.90;;;;;;5033030;28;20176;-68
2022/05/21 03:39:39;;;;;;;1.80;1.63;;;14.10;99.90;;;;;;5033371;28;20191;-68
2022/05/21 03:42:05;;;;;;;1.47;1.37;;;14.10;99.90;;;;;;5037249;28;20175;-69
2022/05/21 03:44:31;;;;;;;1.50;1.40;;;14.10;99.90;;;;;;5036715;28;20298;-68
2022/05/21 03:46:58;;;;;;;3.30;1.40;;;14.00;99.90;;;;;;5032096;28;21007;-69
2022/05/21 03:49:24;;;;;;;2.97;1.33;;;14.00;99.90;;;;;;5032607;28;20168;-68
2022/05/21 03:51:50;;;;;;;1.60;1.50;;;14.00;99.90;;;;;;5032560;28;20816;-69
2022/05/21 03:54:15;;;;;;;1.40;1.30;;;13.90;99.90;;;;;;5032144;28;20168;-69
2022/05/21 03:56:41;;;;;;;2.60;1.53;;;13.90;99.90;;;;;;5032865;28;20215;-69
2022/05/21 03:59:06;;;;;;;2.70;1.63;;;13.80;99.90;;;;;;5032483;28;20642;-69
2022/05/21 04:01:32;;;;;;;1.43;1.33;;;13.80;99.90;;;;;;5032598;28;20168;-69
2022/05/21 04:03:57;;;;;;;1.90;1.20;;;13.80;99.90;;;;;;5032387;28;20174;-69
2022/05/21 04:06:23;;;;;;;4.10;1.73;;;13.80;99.90;;;;;;5032355;28;20199;-69
2022/05/21 04:08:49;;;;;;;1.20;1.10;;;13.80;99.90;;;;;;5032792;28;20172;-69
2022/05/21 04:11:15;;;;;;;2.13;1.70;;;13.90;99.90;;;;;;5032508;28;20594;-69
2022/05/21 04:13:40;;;;;;;1.40;1.30;;;13.80;99.90;;;;;;5032030;28;20433;-68
2022/05/21 04:16:06;;;;;;;1.30;1.20;;;13.80;99.90;;;;;;5032184;28;20206;-69
2022/05/21 04:18:31;;;;;;;1.33;1.23;;;13.80;99.90;;;;;;5032860;28;20171;-69
2022/05/21 04:20:57;;;;;;;1.40;1.30;;;13.80;99.90;;;;;;5032424;28;20187;-67
2022/05/21 04:23:22;;;;;;;1.30;1.10;;;13.80;99.90;;;;;;5032164;28;20180;-68
2022/05/21 04:25:48;;;;;;;1.47;1.30;;;13.80;99.90;;;;;;5036850;28;20226;-69
2022/05/21 04:28:13;;;;;;;1.63;1.20;;;13.70;99.90;;;;;;5036805;28;20631;-69
2022/05/21 04:30:39;;;;;;;2.03;1.00;;;13.70;99.90;;;;;;5036405;28;20183;-69
2022/05/21 04:33:05;;;;;;;1.57;1.27;;;13.70;99.90;;;;;;5035812;28;20167;-69
2022/05/21 04:38:15;;;;;;;1.73;1.20;;;13.60;99.90;;;;;;5036043;28;20181;-69
2022/05/21 04:40:42;;;;;;;2.27;1.47;;;13.60;99.90;;;;;;5035672;28;20814;-68
2022/05/21 04:43:07;;;;;;;1.77;0.80;;;13.60;99.90;;;;;;5036272;28;20903;-69
2022/05/21 04:45:33;;;;;;;1.20;1.00;;;13.60;99.90;;;;;;5037163;28;20460;-69
2022/05/21 04:48:05;;;;;;;1.17;1.07;;;13.60;99.90;;;;;;5037794;28;20198;-69
2022/05/21 04:50:33;;;;;;;1.53;1.00;;;13.80;99.90;;;;;;5036952;28;20172;-68
2022/05/21 04:52:59;;;;;;;1.20;1.10;;;13.70;99.90;;;;;;5035258;28;20765;-68
2022/05/21 04:55:24;;;;;;;1.30;1.20;;;13.70;99.90;;;;;;5034951;28;20445;-70
2022/05/21 04:57:50;;;;;;;1.17;1.07;;;13.80;99.90;;;;;;5036000;28;20175;-70
2022/05/21 05:00:16;;;;;;;2.03;1.17;;;14.10;99.90;;;;;;5035277;28;20179;-68
2022/05/21 05:02:41;;;;;;;1.93;0.90;;;14.30;99.90;;;;;;5035058;28;20183;-68
2022/05/21 05:05:08;;;;;;;2.40;1.37;;;14.80;99.90;;;;;;5034925;28;20438;-68
2022/05/21 05:07:34;;;;;;;2.53;0.90;;;14.90;99.90;;;;;;5035256;28;20164;-69
2022/05/21 05:10:00;;;;;;;2.03;1.40;;;15.20;99.90;;;;;;5035132;28;20495;-68
2022/05/21 05:12:25;;;;;;;2.13;1.20;;;16.00;99.90;;;;;;5035547;28;20173;-68
2022/05/21 05:14:51;;;;;;;2.47;1.30;;;14.90;99.90;;;;;;5037812;28;20430;-69
2022/05/21 05:17:16;;;;;;;1.30;1.20;;;15.30;99.90;;;;;;5037497;28;20183;-69
2022/05/21 05:19:42;;;;;;;2.23;1.50;;;14.70;99.90;;;;;;5038080;28;20582;-69
2022/05/21 05:22:09;;;;;;;1.20;1.10;;;15.10;99.90;;;;;;5036682;28;20236;-69
2022/05/21 05:24:38;;;;;;;1.57;1.00;;;15.00;99.90;;;;;;5036492;28;20262;-68
2022/05/21 05:27:04;;;;;;;2.10;1.20;;;15.10;99.90;;;;;;5036328;28;20446;-68
2022/05/21 05:29:29;;;;;;;4.10;1.50;;;15.30;99.90;;;;;;5038282;28;20423;-69
2022/05/21 05:31:55;;;;;;;1.33;1.23;;;15.50;99.90;;;;;;5039736;28;20976;-68
2022/05/21 05:34:20;;;;;;;1.33;1.10;;;15.80;99.90;;;;;;5034410;28;20165;-69
2022/05/21 05:36:47;;;;;;;2.50;1.50;;;16.10;99.90;;;;;;5034371;28;20324;-68
2022/05/21 05:39:13;;;;;;;1.30;1.20;;;16.20;99.90;;;;;;5034552;28;20174;-68
2022/05/21 05:41:39;;;;;;;1.30;1.20;;;16.50;99.90;;;;;;5035572;28;20688;-68
2022/05/21 05:44:05;;;;;;;1.30;1.20;;;15.50;99.90;;;;;;5035514;28;20412;-68
2022/05/21 05:46:31;;;;;;;1.93;1.13;;;15.70;99.90;;;;;;5034692;28;20463;-68
2022/05/21 05:48:56;;;;;;;1.30;1.20;;;15.20;99.90;;;;;;5034205;28;20404;-68
2022/05/21 05:51:22;;;;;;;1.30;1.00;;;15.40;99.90;;;;;;5033013;28;20184;-68
2022/05/21 05:53:48;;;;;;;1.77;1.30;;;15.10;99.90;;;;;;5035145;28;20238;-68
2022/05/21 05:56:15;;;;;;;1.50;1.10;;;16.10;99.90;;;;;;5034911;28;20191;-69
2022/05/21 06:01:25;;;;;;;2.27;1.07;;;16.30;99.90;;;;;;5036821;28;20410;-69
2022/05/21 06:03:51;;;;;;;3.57;1.50;;;16.30;99.90;;;;;;5036006;28;20540;-69
2022/05/21 06:06:17;;;;;;;1.30;1.20;;;15.60;99.90;;;;;;5034413;28;20452;-68
2022/05/21 06:08:44;;;;;;;1.50;1.30;;;15.60;99.90;;;;;;5035165;28;20185;-69
2022/05/21 06:11:10;;;;;;;1.70;0.90;;;16.00;99.90;;;;;;5034554;28;20464;-69
2022/05/21 06:13:36;;;;;;;2.60;1.67;;;16.40;99.90;;;;;;5034025;28;20449;-69
2022/05/21 06:16:02;;;;;;;4.50;1.23;;;16.10;99.90;;;;;;5034065;28;20496;-68
2022/05/21 06:18:27;;;;;;;1.67;1.53;;;16.50;99.90;;;;;;5033696;28;20279;-69
2022/05/21 06:20:52;;;;;;;1.83;1.10;;;16.90;99.90;;;;;;5033899;28;20434;-67
2022/05/21 06:23:19;;;;;;;4.20;1.37;;;16.60;99.90;;;;;;5033886;28;20175;-69
2022/05/21 06:25:45;;;;;;;1.00;0.90;;;16.90;99.90;;;;;;5033639;28;20211;-68
2022/05/21 06:28:10;;;;;;;1.10;1.00;;;16.70;99.90;;;;;;5034581;28;20417;-68
2022/05/21 06:30:38;;;;;;;2.43;1.30;;;16.00;99.90;;;;;;5033988;28;20167;-68
2022/05/21 06:33:25;;;;;;;2.97;1.77;;;15.70;99.90;;;;;;5034118;28;20281;-68
2022/05/21 06:36:07;;;;;;;1.53;1.40;;;15.40;99.90;;;;;;5034172;28;20428;-68
2022/05/21 06:38:34;;;;;;;3.33;2.03;;;15.80;99.90;;;;;;5034828;28;20782;-68
2022/05/21 06:41:00;;;;;;;1.20;1.10;;;15.30;99.90;;;;;;5034889;28;20411;-69
2022/05/21 06:43:25;;;;;;;1.73;1.63;;;15.20;99.90;;;;;;5034946;28;20464;-69
2022/05/21 06:45:51;;;;;;;1.53;1.40;;;15.30;99.90;;;;;;5032839;28;20196;-69
2022/05/21 06:48:16;;;;;;;1.97;1.17;;;15.60;99.90;;;;;;5032680;28;20165;-69
2022/05/21 06:50:42;;;;;;;3.13;1.30;;;15.40;99.90;;;;;;5033132;28;20255;-68
2022/05/21 06:53:07;;;;;;;2.23;1.40;;;15.40;99.90;;;;;;5033772;28;20164;-68
2022/05/21 06:55:33;;;;;;;2.67;1.73;;;15.30;99.90;;;;;;5034127;28;20196;-68
2022/05/21 06:57:59;;;;;;;3.27;2.43;;;15.50;99.90;;;;;;5034392;28;20208;-69
2022/05/21 07:00:24;;;;;;;1.63;1.53;;;15.30;99.90;;;;;;5032856;28;20519;-69
2022/05/21 07:02:52;;;;;;;3.67;2.07;;;15.40;99.90;;;;;;5033869;28;20168;-69
2022/05/21 07:08:22;;;;;;;2.13;1.70;;;16.30;99.90;;;;;;5023921;28;20899;-69
2022/05/21 07:10:48;;;;;;;1.83;1.60;;;16.20;99.90;;;;;;5034136;28;20416;-70
2022/05/21 07:13:15;;;;;;;2.33;2.13;;;16.10;99.90;;;;;;5031740;28;20417;-68
2022/05/21 07:15:41;;;;;;;1.20;1.03;;;16.10;99.90;;;;;;5032922;28;20193;-69
2022/05/21 07:18:07;;;;;;;2.33;1.60;;;15.80;99.90;;;;;;5036332;28;20459;-69
2022/05/21 07:20:32;;;;;;;1.43;1.03;;;15.50;99.90;;;;;;5034495;28;20417;-68
2022/05/21 07:23:00;;;;;;;2.50;1.63;;;16.00;99.90;;;;;;5032769;28;20675;-68
2022/05/21 07:25:28;;;;;;;2.27;2.07;;;16.70;99.90;;;;;;5048115;22;20267;-72
2022/05/21 07:27:53;;;;;;;1.77;1.60;;;17.00;99.90;;;;;;5012285;28;20411;-73
2022/05/21 07:30:19;;;;;;;1.90;1.00;;;16.70;99.90;;;;;;5012376;28;20796;-72
2022/05/21 07:32:45;;;;;;;6.63;1.13;;;17.40;99.90;;;;;;5012078;28;20616;-71
2022/05/21 07:35:13;;;;;;;1.33;1.10;;;17.20;99.90;;;;;;5011812;28;20562;-71
2022/05/21 07:37:40;;;;;;;2.30;1.20;;;16.90;99.90;;;;;;5012313;28;20162;-72
2022/05/21 07:40:07;;;;;;;1.53;1.33;;;17.40;99.90;;;;;;5012133;28;20444;-71
2022/05/21 07:42:35;;;;;;;1.73;1.30;;;18.40;99.90;;;;;;5012135;28;20429;-72
2022/05/21 07:45:00;;;;;;;1.10;1.00;;;18.60;99.90;;;;;;5011747;28;20428;-72
2022/05/21 07:47:26;;;;;;;4.50;1.60;;;19.40;99.90;;;;;;5012159;28;20903;-72
2022/05/21 07:49:54;;;;;;;1.73;1.43;;;19.10;99.90;;;;;;5012299;28;20180;-72
2022/05/21 07:52:20;;;;;;;1.53;1.43;;;18.60;99.90;;;;;;5012430;28;20170;-73
2022/05/21 07:54:45;;;;;;;3.03;1.50;;;19.50;99.90;;;;;;5012517;28;20773;-73
2022/05/21 07:57:11;;;;;;;3.57;0.90;;;19.70;99.90;;;;;;5012646;28;20180;-73
2022/05/21 07:59:36;;;;;;;1.30;1.13;;;19.30;99.90;;;;;;5016341;28;20214;-73
2022/05/21 08:02:02;;;;;;;1.40;1.20;;;19.80;99.90;;;;;;5016241;28;20176;-73
2022/05/21 08:04:28;;;;;;;1.57;1.20;;;20.10;99.90;;;;;;5015803;28;20182;-74
2022/05/21 08:06:53;;;;;;;0.97;0.83;;;21.00;99.90;;;;;;5016084;28;20450;-73
2022/05/21 08:09:19;;;;;;;1.50;0.90;;;20.20;99.90;;;;;;5016326;28;20252;-73
2022/05/21 08:11:44;;;;;;;1.20;1.10;;;19.90;99.90;;;;;;5015839;28;20227;-72
2022/05/21 08:14:10;;;;;;;1.10;1.00;;;19.80;99.90;;;;;;5015527;28;20164;-73
2022/05/21 08:16:35;;;;;;;1.60;1.20;;;20.80;99.90;;;;;;5015175;28;20191;-71
2022/05/21 08:19:01;;;;;;;1.30;1.20;;;21.00;99.90;;;;;;5015528;28;20637;-71
2022/05/21 08:21:27;;;;;;;1.73;1.17;;;21.80;99.90;;;;;;5015257;28;20176;-71
2022/05/21 08:29:21;;;;;;;1.20;1.10;;;22.30;99.90;;;;;;5015089;28;20401;-71
2022/05/21 08:31:46;;;;;;;1.00;0.90;;;21.50;99.90;;;;;;5015016;28;20413;-72
2022/05/21 08:34:12;;;;;;;1.13;1.00;;;20.90;99.90;;;;;;5015236;28;20253;-71
2022/05/21 08:36:38;;;;;;;1.90;1.07;;;20.00;99.90;;;;;;5015049;28;20250;-72
2022/05/21 08:39:03;;;;;;;0.90;0.83;;;20.20;99.90;;;;;;5015121;28;20701;-72
2022/05/21 08:41:31;;;;;;;1.10;1.00;;;19.00;99.90;;;;;;5014858;28;20417;-72
2022/05/21 08:44:07;;;;;;;1.20;1.10;;;19.50;99.90;;;;;;5014843;28;20186;-72
2022/05/21 08:46:59;;;;;;;1.50;1.20;;;19.60;99.90;;;;;;5013304;28;20859;-72
2022/05/21 08:49:43;;;;;;;2.10;1.10;;;18.80;99.90;;;;;;5015029;28;20402;-72
2022/05/21 08:52:24;;;;;;;4.50;1.17;;;18.00;99.90;;;;;;5014751;28;20408;-72
2022/05/21 08:54:54;;;;;;;2.13;1.73;;;18.60;99.90;;;;;;5014451;28;20575;-72
2022/05/21 08:57:25;;;;;;;2.63;1.67;;;18.20;99.90;;;;;;5014745;28;20473;-72
2022/05/21 09:00:11;;;;;;;1.70;1.30;;;17.70;99.90;;;;;;5014565;28;20438;-72
2022/05/21 09:02:37;;;;;;;1.70;1.57;;;16.80;99.90;;;;;;5014368;28;20412;-72
2022/05/21 09:05:06;;;;;;;3.27;2.03;;;16.20;99.90;;;;;;5014221;28;20860;-72
2022/05/21 09:07:45;;;;;;;2.07;1.60;;;15.90;99.90;;;;;;5014359;28;20410;-72
2022/05/21 09:10:52;;;;;;;3.63;1.37;;;16.00;99.90;;;;;;5013863;28;20914;-72
2022/05/21 09:13:24;;;;;;;1.90;1.80;;;16.50;99.90;;;;;;5014229;28;20931;-71
2022/05/21 09:18:35;;;;;;;4.00;2.23;;;16.90;99.90;;;;;;5014289;28;20471;-71
2022/05/21 09:21:08;;;;;;;2.10;1.70;;;17.20;99.90;;;;;;5013052;28;20464;-71
2022/05/21 09:23:58;;;;;;;2.13;1.90;;;17.20;99.90;;;;;;5014182;28;20455;-71
2022/05/21 09:26:27;;;;;;;2.37;2.17;;;16.90;99.90;;;;;;5006017;28;20517;-71
2022/05/21 09:29:10;;;;;;;2.63;1.80;;;16.40;99.90;;;;;;5014342;28;20401;-71
2022/05/21 09:31:35;;;;;;;2.03;1.63;;;16.40;99.90;;;;;;5014009;28;20906;-71
2022/05/21 09:34:14;;;;;;;3.30;1.77;;;16.10;99.90;;;;;;5014024;28;20428;-71
2022/05/21 09:36:39;;;;;;;2.10;1.90;;;16.10;99.90;;;;;;5013500;28;20193;-71
2022/05/21 09:39:05;;;;;;;3.87;1.80;;;16.20;99.90;;;;;;5013962;28;20414;-71
2022/05/21 09:41:32;;;;;;;1.50;1.40;;;16.20;99.90;;;;;;5013573;28;20179;-71
2022/05/21 09:47:08;;;;;;;2.53;1.50;;;16.30;99.90;;;;;;5013625;28;21036;-72
2022/05/21 09:49:34;;;;;;;2.23;1.87;;;16.00;99.90;;;;;;5013740;28;20509;-72
2022/05/21 09:52:05;;;;;;;2.40;2.20;;;16.10;99.90;;;;;;5013597;28;20508;-72
2022/05/21 09:54:40;;;;;;;2.33;2.03;;;15.80;99.90;;;;;;5013321;28;20175;-72
2022/05/21 09:57:19;;;;;;;5.80;2.27;;;15.90;99.90;;;;;;5013447;28;20507;-71
2022/05/21 10:00:01;;;;;;;4.17;2.53;;;16.10;99.90;;;;;;5013363;28;20899;-72
2022/05/21 10:02:39;;;;;;;3.23;2.37;;;16.40;99.90;;;;;;5013396;28;20435;-72
2022/05/21 10:05:08;;;;;;;3.23;2.80;;;15.90;99.90;;;;;;5013136;28;20474;-72
2022/05/21 10:13:20;;;;;;;5.17;3.23;;;16.90;99.90;;;;;;5013369;28;20399;-72
2022/05/21 10:15:51;;;;;;;3.73;3.20;;;17.00;99.90;;;;;;5013009;28;20437;-72
2022/05/21 10:18:40;;;;;;;3.00;2.77;;;17.30;99.90;;;;;;5013445;28;20469;-72
2022/05/21 10:21:35;;;;;;;2.93;2.50;;;17.70;99.90;;;;;;5013270;28;20401;-72
2022/05/21 10:24:16;;;;;;;2.90;2.70;;;18.10;99.90;;;;;;5013119;28;20406;-72
2022/05/21 10:26:58;;;;;;;3.73;3.43;;;18.30;99.90;;;;;;5012400;28;20477;-72
2022/05/21 10:29:48;;;;;;;3.60;3.30;;;18.00;99.90;;;;;;5012967;28;20407;-72
2022/05/21 10:32:41;;;;;;;4.90;4.50;;;17.80;99.90;;;;;;5012813;28;20415;-72
2022/05/21 10:35:31;;;;;;;5.33;3.63;;;17.90;99.90;;;;;;5012585;28;20427;-71
2022/05/21 10:38:24;;;;;;;4.30;3.67;;;18.00;99.90;;;;;;5012807;28;20435;-72
2022/05/21 10:41:01;;;;;;;3.40;2.87;;;18.20;99.90;;;;;;5012641;28;20750;-72
2022/05/21 10:43:52;;;;;;;3.43;3.13;;;18.80;99.90;;;;;;5012571;28;20413;-72
2022/05/21 10:46:46;;;;;;;4.13;3.70;;;18.60;99.90;;;;;;5012118;28;20561;-72
2022/05/21 10:49:44;;;;;;;3.27;2.97;;;18.70;99.90;;;;;;5012665;28;20409;-72
2022/05/21 10:52:15;;;;;;;3.67;3.17;;;18.60;99.90;;;;;;5012623;28;20405;-72
2022/05/21 10:55:01;;;;;;;2.83;2.63;;;18.40;99.90;;;;;;5012055;28;20768;-72
2022/05/21 10:57:58;;;;;;;2.63;2.20;;;17.90;99.90;;;;;;5011240;28;20980;-72
2022/05/21 11:00:41;;;;;;;2.97;2.70;;;18.00;99.90;;;;;;5012432;28;20406;-71
2022/05/21 11:03:28;;;;;;;3.20;2.90;;;17.50;99.90;;;;;;5012500;28;20766;-72
2022/05/21 11:06:32;;;;;;;3.50;3.20;;;17.40;99.90;;;;;;5012148;28;20497;-71
2022/05/21 11:09:18;;;;;;;2.57;2.37;;;17.50;99.90;;;;;;5012404;28;20409;-72
2022/05/21 11:12:03;;;;;;;5.73;3.10;;;17.50;99.90;;;;;;5012231;28;20765;-72
2022/05/21 11:14:40;;;;;;;4.03;2.77;;;17.60;99.90;;;;;;5011764;28;20411;-72
2022/05/21 11:17:40;;;;;;;3.77;2.27;;;17.60;99.90;;;;;;5012384;28;20460;-72
2022/05/21 11:20:32;;;;;;;3.37;2.77;;;17.70;99.90;;;;;;5012268;28;20410;-71
2022/05/21 11:23:26;;;;;;;3.00;2.80;;;17.80;99.90;;;;;;5012071;28;20466;-72
2022/05/21 11:26:16;;;;;;;3.67;2.10;;;18.40;99.90;;;;;;5011773;28;20546;-72
2022/05/21 11:28:47;;;;;;;3.40;2.40;;;19.20;99.90;;;;;;5012152;28;20451;-72
2022/05/21 11:37:20;;;;;;;2.53;2.33;;;18.60;99.90;;;;;;5012261;28;20406;-71
2022/05/21 11:39:44;;;;;;;3.00;2.20;;;18.90;99.90;;;;;;5011911;28;20418;-72
2022/05/21 11:42:16;;;;;;;4.03;2.70;;;18.90;99.90;;;;;;5012164;28;20772;-73
2022/05/21 11:44:56;;;;;;;2.53;2.33;;;19.10;99.90;;;;;;5011785;28;20170;-71
2022/05/21 11:47:21;;;;;;;2.57;2.30;;;19.20;99.90;;;;;;5012112;28;20557;-71
2022/05/21 11:49:55;;;;;;;2.20;1.93;;;18.90;99.90;;;;;;5012119;28;20968;-71
2022/05/21 11:52:27;;;;;;;4.53;2.73;;;19.00;99.90;;;;;;5011873;28;20486;-71
2022/05/21 11:55:09;;;;;;;3.63;2.80;;;18.40;99.90;;;;;;5011676;28;20447;-71
2022/05/21 11:57:41;;;;;;;2.77;2.57;;;18.20;99.90;;;;;;5011766;28;20517;-73
2022/05/21 12:00:08;;;;;;;3.30;2.80;;;18.10;99.90;;;;;;5011545;28;20751;-71
2022/05/21 12:02:37;;;;;;;2.93;2.60;;;18.00;99.90;;;;;;5009898;28;20886;-71
2022/05/21 12:05:08;;;;;;;4.57;2.73;;;17.60;99.90;;;;;;5011254;28;20455;-71
2022/05/21 12:07:48;;;;;;;9.77;3.60;;;17.80;99.90;;;;;;5011808;28;20422;-72
2022/05/21 12:10:55;;;;;;;4.80;2.87;;;17.70;99.90;;;;;;5011560;28;20830;-72
2022/05/21 12:13:34;;;;;;;3.40;2.07;;;17.50;99.90;;;;;;4989645;28;20414;-72
2022/05/21 12:16:14;;;;;;;3.40;3.10;;;17.40;99.90;;;;;;5011726;28;20489;-72
2022/05/21 12:18:46;;;;;;;3.90;2.73;;;17.50;99.90;;;;;;5012370;28;20407;-71
2022/05/21 12:21:32;;;;;;;3.43;2.17;;;17.30;99.90;;;;;;5011425;28;20496;-72
2022/05/21 12:24:02;;;;;;;2.43;2.23;;;17.20;99.90;;;;;;5010638;28;20398;-72
2022/05/21 12:26:43;;;;;;;2.90;2.37;;;17.00;99.90;;;;;;5011302;28;20563;-72
2022/05/21 12:29:24;;;;;;;2.30;2.03;;;17.20;99.90;;;;;;5011525;28;20953;-71
2022/05/21 12:31:53;;;;;;;2.30;2.10;;;17.20;99.90;;;;;;5011575;28;20415;-72
2022/05/21 12:34:21;;;;;;;3.57;2.77;;;17.30;99.90;;;;;;5011605;28;20409;-72
2022/05/21 12:37:02;;;;;;;4.30;2.70;;;17.50;99.90;;;;;;5011720;28;20448;-72
2022/05/21 12:39:49;;;;;;;2.20;2.10;;;17.20;99.90;;;;;;5010211;28;20425;-72
2022/05/21 12:42:25;;;;;;;4.20;2.43;;;17.40;99.90;;;;;;5011661;28;20407;-72
2022/05/21 12:44:51;;;;;;;5.73;2.80;;;17.90;99.90;;;;;;5011798;28;20824;-72
2022/05/21 12:47:28;;;;;;;5.27;2.70;;;17.70;99.90;;;;;;5014620;28;20457;-71
2022/05/21 12:49:54;;;;;;;6.77;2.90;;;18.00;99.90;;;;;;5014563;28;20170;-71
2022/05/21 12:52:22;;;;;;;2.60;2.40;;;18.10;99.90;;;;;;5014435;28;20934;-72
2022/05/21 12:54:49;;;;;;;3.00;2.70;;;18.30;99.90;;;;;;5014045;28;20449;-72
2022/05/21 12:57:19;;;;;;;8.07;2.30;;;18.70;99.90;;;;;;5014305;28;20968;-72
2022/05/21 12:59:44;;;;;;;3.17;1.87;;;18.70;99.90;;;;;;5014463;28;20413;-72
2022/05/21 13:02:19;;;;;;;2.40;1.77;;;18.70;99.90;;;;;;5014328;28;20432;-72
2022/05/21 13:04:48;;;;;;;2.87;2.00;;;18.70;99.90;;;;;;5014405;28;20499;-72
2022/05/21 13:07:43;;;;;;;2.10;1.90;;;18.80;99.90;;;;;;5014019;28;20515;-72
2022/05/21 13:10:25;;;;;;;4.43;1.90;;;18.80;99.90;;;;;;5014595;28;20407;-72
2022/05/21 13:13:17;;;;;;;2.80;1.93;;;19.20;99.90;;;;;;5014303;28;20836;-72
2022/05/21 13:15:50;;;;;;;1.67;1.57;;;19.20;99.90;;;;;;5013559;28;20443;-72
2022/05/21 13:18:31;;;;;;;1.80;1.53;;;19.00;99.90;;;;;;5014222;28;20418;-72
2022/05/21 13:21:03;;;;;;;2.60;1.73;;;19.00;99.90;;;;;;5014257;28;20924;-72
2022/05/21 13:23:50;;;;;;;1.93;1.57;;;19.30;99.90;;;;;;5014211;28;20770;-72
2022/05/21 13:26:25;;;;;;;2.63;1.40;;;19.40;99.90;;;;;;5054403;23;20486;-69
2022/05/21 13:28:50;;;;;;;2.30;2.10;;;19.10;99.90;;;;;;5034597;28;20409;-69
2022/05/21 13:31:18;;;;;;;3.83;2.90;;;18.70;99.90;;;;;;5034850;28;20397;-69
2022/05/21 13:33:50;;;;;;;2.00;1.60;;;18.50;99.90;;;;;;5034997;28;20171;-69
2022/05/21 13:36:19;;;;;;;1.93;1.30;;;19.10;99.90;;;;;;5035392;28;20418;-69
2022/05/21 13:38:47;;;;;;;1.50;1.00;;;19.60;99.90;;;;;;5036028;28;20790;-69
2022/05/21 13:41:17;;;;;;;2.03;1.70;;;19.40;99.90;;;;;;5039089;28;20403;-69